Date,TemperatureHighF,TemperatureAvgF,TemperatureLowF,DewpointHighF,DewpointAvgF,DewpointLowF,HumidityHigh,HumidityAvg,HumidityLow,PressureMaxIn,PressureMinIn,WindSpeedMaxMPH,WindSpeedAvgMPH,GustSpeedMaxMPH,PrecipitationSumIn
2013-4-1,52.9,43.2,35.4,43.2,29.9,22.3,74,60,40,30.23,29.92,19,7,19,0.00
2013-4-2,47.2,38.0,29.2,31.1,22.5,13.1,81,56,28,30.37,30.23,15,2,15,0.00
2013-4-3,52.4,42.6,31.6,28.7,23.6,19.2,82,49,30,30.41,30.26,19,4,19,0.00
2013-4-4,60.7,47.9,35.4,32.4,25.6,21.8,60,43,26,30.26,30.03,14,4,14,0.00
2013-4-5,65.0,51.6,38.0,42.4,33.6,26.1,73,52,25,30.17,30.06,15,2,16,0.00
2013-4-6,72.7,60.9,49.5,46.5,39.5,34.4,61,46,31,30.09,29.81,31,9,31,0.00
2013-4-7,77.5,65.5,56.3,60.0,52.4,45.9,88,64,44,29.94,29.83,25,6,25,1.05
2013-4-8,75.1,66.8,60.0,61.6,57.1,53.1,81,71,57,29.91,29.79,23,8,24,0.00
2013-4-9,80.5,71.1,63.0,64.4,60.8,56.3,81,70,52,29.94,29.83,32,8,32,0.00
2013-4-10,82.2,73.7,62.0,69.1,65.7,60.3,96,76,58,29.85,29.64,33,9,33,1.01
2013-4-11,65.1,51.4,40.7,63.0,47.7,32.4,96,87,70,29.78,29.58,18,5,18,0.20
2013-4-12,51.2,42.9,36.5,37.2,33.6,30.8,87,70,51,30.05,29.75,21,5,21,0.00
2013-4-13,62.9,49.2,34.1,40.5,36.2,30.6,89,63,38,30.10,29.95,15,3,15,0.00
2013-4-14,77.5,62.8,49.6,54.5,46.2,39.9,72,56,35,29.96,29.70,25,6,25,0.00
2013-4-15,77.2,65.6,58.3,63.5,57.0,49.6,85,74,58,29.92,29.78,18,3,18,0.00
2013-4-16,65.0,54.5,50.3,59.2,51.9,47.6,95,91,81,30.12,29.85,29,4,29,0.04
2013-4-17,84.1,67.1,51.5,71.1,60.8,50.1,98,82,54,30.12,29.76,26,5,26,0.00
2013-4-18,75.4,65.4,43.3,67.2,59.7,36.3,95,82,71,29.76,29.59,34,13,34,2.05
2013-4-19,52.2,43.5,39.2,37.3,31.3,27.0,79,63,41,30.09,29.73,22,7,22,0.00
2013-4-20,55.7,45.5,33.8,35.3,31.3,28.7,84,59,38,30.37,30.09,11,2,15,0.00
2013-4-21,62.7,50.8,39.7,39.4,34.7,31.6,73,55,34,30.45,30.29,17,5,17,0.00
2013-4-22,73.8,59.6,42.8,49.0,41.8,34.9,76,53,34,30.30,30.03,15,3,15,0.00
2013-4-23,66.3,57.0,42.5,60.8,50.7,40.6,94,80,60,30.05,29.80,26,4,26,0.39
2013-4-24,52.1,44.0,39.8,40.8,36.7,31.0,94,77,47,30.28,29.94,23,6,23,0.90
2013-4-25,61.7,50.1,36.5,41.9,36.3,32.8,92,62,35,30.37,30.27,17,3,17,0.00
2013-4-26,59.1,52.3,46.7,48.8,43.1,36.4,90,71,60,30.42,30.26,18,2,18,0.00
2013-4-27,56.6,53.2,49.7,54.9,51.4,47.9,97,94,86,30.33,29.91,19,3,19,0.18
2013-4-28,59.5,55.2,51.2,54.6,52.8,49.5,97,92,81,29.96,29.87,13,3,13,0.02
2013-4-29,75.8,61.8,47.0,60.9,55.0,45.8,98,80,56,29.99,29.85,18,3,18,0.01
2013-4-30,84.5,71.1,58.5,62.1,58.0,54.8,88,66,39,29.97,29.85,15,3,15,0.00